Time;durP1;ratioP1;P1;durP2;ratioP2;P2;SDS_P1;SDS_P2;PMS_P1;PMS_P2;Temp;Humidity;BMP_temperature;BMP_pressure;BME280_temperature;BME280_humidity;BME280_pressure;Samples;Min_cycle;Max_cycle;Signal;HPM_P1;HPM_P2
2023/04/10 16:33:29;;;;;;;;;;;20.30;68.60;20.20;99760.00;;;;330297;29;91959;-89
2023/04/10 16:33:41;;;;;;;;;;;20.30;68.60;20.20;99748.00;;;;333382;29;91174;-89
2023/04/10 16:33:53;;;;;;;;;;;20.30;68.60;20.20;99748.00;;;;332623;29;92861;-89
2023/04/10 16:34:04;;;;;;;;;;;20.20;68.50;20.20;99749.00;;;;332535;29;92181;-90
2023/04/10 16:34:16;;;;;;;;;;;20.20;68.30;20.10;99747.00;;;;332774;29;94048;-91
2023/04/10 16:34:28;;;;;;;;;;;20.20;67.90;20.20;99748.00;;;;332653;29;91882;-89
2023/04/10 16:34:40;;;;;;;;;;;20.20;67.90;20.20;99749.00;;;;332757;29;93814;-92
2023/04/10 16:34:52;;;;;;;;;;;20.20;68.00;20.20;99738.00;;;;332552;29;92512;-91
2023/04/10 16:35:04;;;;;;;;;;;20.20;68.10;20.20;99750.00;;;;334149;29;93471;-91
2023/04/10 16:35:21;;;;;;;;;;;20.20;68.40;20.20;99741.00;;;;332537;29;91990;-88
2023/04/10 16:35:33;;;;;;;;;;;20.20;68.40;20.30;99743.00;;;;331407;29;94702;-90
2023/04/10 16:35:46;;;;;;;;;;;20.20;68.60;20.40;99743.00;;;;333828;29;91185;-90
2023/04/10 16:35:58;;;;;;;;;;;20.20;68.60;20.40;99752.00;;;;332760;29;93874;-89
2023/04/10 16:36:10;;;;;;;;;;;20.20;68.90;20.40;99748.00;;;;331219;29;92088;-89
2023/04/10 16:36:22;;;;;;;;;;;20.20;69.00;20.50;99746.00;;;;331430;29;97241;-90
2023/04/10 16:36:38;;;;;;;;;;;20.20;68.90;20.30;99745.00;;;;331389;29;92045;-89
2023/04/10 16:36:52;;;;;;;;;;;20.20;69.10;20.20;99752.00;;;;330012;29;94613;-89
2023/04/10 16:37:04;;;;;;;;;;;20.20;69.20;20.20;99747.00;;;;330873;29;92056;-87
2023/04/10 16:37:16;;;;;;;;;;;20.20;68.70;20.20;99745.00;;;;331280;29;94721;-88
2023/04/10 16:37:28;;;;;;;;;;;20.20;68.60;20.20;99745.00;;;;333173;29;92204;-89
2023/04/10 16:37:40;;;;;;;;;;;20.20;68.60;20.10;99754.00;;;;331483;29;94535;-87
2023/04/10 16:37:52;;;;;;;;;;;20.20;68.60;20.10;99747.00;;;;329933;29;92098;-90
2023/04/10 16:38:04;;;;;;;;;;;20.10;68.60;20.10;99748.00;;;;332006;29;96299;-89
2023/04/10 16:38:16;;;;;;;;;;;20.20;68.30;20.10;99745.00;;;;333211;29;92179;-90
2023/04/10 16:38:27;;;;;;;;;;;20.20;68.00;20.10;99750.00;;;;333417;29;95951;-89
2023/04/10 16:38:39;;;;;;;;;;;20.10;68.10;20.20;99747.00;;;;334259;29;91918;-89
2023/04/10 16:38:51;;;;;;;;;;;20.20;68.40;20.20;99745.00;;;;334458;29;95808;-89
2023/04/10 16:39:04;;;;;;;;;;;20.10;68.60;20.30;99754.00;;;;332013;29;91122;-89
2023/04/10 16:39:16;;;;;;;;;;;20.20;68.80;20.40;99743.00;;;;334621;29;94961;-89
2023/04/10 16:39:28;;;;;;;;;;;20.20;68.80;20.40;99755.00;;;;332558;29;91269;-89
2023/04/10 16:39:40;;;;;;;;;;;20.20;68.80;20.30;99747.00;;;;333212;29;95669;-89
2023/04/10 16:39:52;;;;;;;;;;;20.20;68.70;20.40;99749.00;;;;331621;29;91228;-90
2023/04/10 16:40:04;;;;;;;;;;;20.20;68.60;20.30;99753.00;;;;330906;29;94478;-89
2023/04/10 16:40:16;;;;;;;;;;;20.20;68.70;20.30;99752.00;;;;330571;29;92974;-90
2023/04/10 16:40:31;;;;;;;;;;;20.20;68.50;20.20;99749.00;;;;333433;29;96980;-91
2023/04/10 16:40:43;;;;;;;;;;;20.20;68.10;20.20;99748.00;;;;335333;29;91097;-91
2023/04/10 16:40:56;;;;;;;;;;;20.20;68.10;20.10;99750.00;;;;332809;29;93574;-92
2023/04/10 16:41:09;;;;;;;;;;;20.20;68.10;20.20;99749.00;;;;333881;29;91211;-92
2023/04/10 16:41:21;;;;;;;;;;;20.10;68.10;20.20;99746.00;;;;337233;29;92213;-93
2023/04/10 16:41:33;;;;;;;;;;;20.10;68.30;20.20;99754.00;;;;331343;29;91241;-93
2023/04/10 16:41:45;;;;;;;;;;;20.10;68.30;20.20;99761.00;;;;334220;29;95529;-94
2023/04/10 16:41:57;;;;;;;;;;;20.10;68.50;20.20;99748.00;;;;331906;29;91429;-92
2023/04/10 16:42:09;;;;;;;;;;;20.10;68.60;20.20;99754.00;;;;330156;29;95918;-92
2023/04/10 16:42:21;;;;;;;;;;;20.10;68.50;20.20;99755.00;;;;332519;29;92174;-92
2023/04/10 16:42:33;;;;;;;;;;;20.10;68.50;20.20;99748.00;;;;332772;29;95763;-94
2023/04/10 16:42:45;;;;;;;;;;;20.10;68.70;20.10;99754.00;;;;331322;29;91957;-92
2023/04/10 16:42:58;;;;;;;;;;;20.10;68.60;20.10;99750.00;;;;332689;29;95871;-92
2023/04/10 16:43:11;;;;;;;;;;;20.10;68.40;20.10;99753.00;;;;333699;29;92120;-93
2023/04/10 16:43:23;;;;;;;;;;;20.10;68.50;20.10;99754.00;;;;332823;29;94733;-91
2023/04/10 16:43:35;;;;;;;;;;;20.10;68.80;20.10;99769.00;;;;328604;29;92152;-94
2023/04/10 16:43:47;;;;;;;;;;;20.10;68.70;20.10;99750.00;;;;331498;29;96196;-93
2023/04/10 16:43:59;;;;;;;;;;;20.10;68.30;20.10;99763.00;;;;331198;29;92151;-91
2023/04/10 16:44:11;;;;;;;;;;;20.10;68.90;20.20;99756.00;;;;331561;29;94989;-92
2023/04/10 16:44:23;;;;;;;;;;;20.10;68.50;20.20;99754.00;;;;329970;29;92979;-92
2023/04/10 16:44:35;;;;;;;;;;;20.10;68.70;20.30;99757.00;;;;331381;29;95428;-92
2023/04/10 16:44:47;;;;;;;;;;;20.10;68.70;20.30;99755.00;;;;331166;29;91842;-93
2023/04/10 16:45:00;;;;;;;;;;;20.10;68.90;20.30;99753.00;;;;332176;29;95858;-91
2023/04/10 16:45:13;;;;;;;;;;;20.10;69.70;20.30;99753.00;;;;332556;29;92045;-93
2023/04/10 16:45:25;;;;;;;;;;;20.10;69.70;20.30;99759.00;;;;332754;29;94951;-93
2023/04/10 16:45:37;;;;;;;;;;;20.10;69.20;20.30;99756.00;;;;333462;29;92150;-92
2023/04/10 16:45:58;;;;;;;;;;;20.10;69.10;20.30;99757.00;;;;331526;29;95361;-91
2023/04/10 16:46:10;;;;;;;;;;;20.10;69.00;20.30;99756.00;;;;333860;29;91190;-91
2023/04/10 16:46:22;;;;;;;;;;;20.20;69.00;20.40;99759.00;;;;330227;29;95677;-92
2023/04/10 16:46:35;;;;;;;;;;;20.10;69.00;20.30;99758.00;;;;332336;29;93080;-92
2023/04/10 16:46:46;;;;;;;;;;;20.10;69.00;20.30;99755.00;;;;331552;29;97107;-92
2023/04/10 16:46:58;;;;;;;;;;;20.20;69.00;20.40;99756.00;;;;332546;29;91289;-91
2023/04/10 16:47:10;;;;;;;;;;;20.10;69.10;20.40;99746.00;;;;332891;29;95128;-92
2023/04/10 16:47:23;;;;;;;;;;;20.20;69.10;20.40;99754.00;;;;332633;29;91098;-92
2023/04/10 16:47:34;;;;;;;;;;;20.20;69.30;20.40;99757.00;;;;329839;29;95069;-91
2023/04/10 16:47:47;;;;;;;;;;;20.20;69.20;20.30;99754.00;;;;329996;29;92087;-93
2023/04/10 16:47:59;;;;;;;;;;;20.20;69.40;20.30;99756.00;;;;332852;29;94570;-92
2023/04/10 16:48:11;;;;;;;;;;;20.10;69.00;20.30;99762.00;;;;332388;29;92039;-91
2023/04/10 16:48:24;;;;;;;;;;;20.10;68.80;20.30;99753.00;;;;334053;29;96112;-92
2023/04/10 16:48:37;;;;;;;;;;;20.10;69.00;20.40;99755.00;;;;332671;29;92958;-92
2023/04/10 16:48:50;;;;;;;;;;;20.20;69.00;20.30;99756.00;;;;331287;29;94475;-93
2023/04/10 16:49:02;;;;;;;;;;;20.20;68.90;20.30;99756.00;;;;332523;29;92052;-93
2023/04/10 16:49:14;;;;;;;;;;;20.10;69.20;20.30;99760.00;;;;333038;29;94536;-92
2023/04/10 16:49:26;;;;;;;;;;;20.20;69.10;20.40;99753.00;;;;331272;29;91150;-93
2023/04/10 16:49:44;;;;;;;;;;;20.20;69.00;20.30;99752.00;;;;333996;29;96314;-93
2023/04/10 16:49:56;;;;;;;;;;;20.20;69.10;20.30;99765.00;;;;334739;29;91949;-92
2023/04/10 16:50:08;;;;;;;;;;;20.20;69.20;20.30;99752.00;;;;332621;29;96052;-92
2023/04/10 16:50:20;;;;;;;;;;;20.20;69.00;20.30;99759.00;;;;333877;29;91143;-92
2023/04/10 16:50:35;;;;;;;;;;;20.20;68.80;20.30;99759.00;;;;332425;29;94974;-91
2023/04/10 16:50:47;;;;;;;;;;;20.20;68.80;20.30;99758.00;;;;331355;29;92907;-92
2023/04/10 16:51:04;;;;;;;;;;;20.20;69.30;20.40;99761.00;;;;331507;29;95417;-91
2023/04/10 16:51:16;;;;;;;;;;;20.20;68.90;20.30;99762.00;;;;331284;29;91152;-93
2023/04/10 16:51:28;;;;;;;;;;;20.20;68.70;20.30;99763.00;;;;332616;29;96567;-93
2023/04/10 16:51:40;;;;;;;;;;;20.20;68.90;20.30;99762.00;;;;332558;29;92106;-93
2023/04/10 16:51:52;;;;;;;;;;;20.10;69.10;20.30;99764.00;;;;332911;29;93631;-92
2023/04/10 16:52:04;;;;;;;;;;;20.20;68.90;20.30;99756.00;;;;331174;29;92241;-94
2023/04/10 16:52:16;;;;;;;;;;;20.20;68.60;20.30;99770.00;;;;332859;29;95549;-91
2023/04/10 16:52:28;;;;;;;;;;;20.10;68.10;20.30;99761.00;;;;332681;29;91188;-93
2023/04/10 16:52:40;;;;;;;;;;;20.10;68.10;20.30;99756.00;;;;330206;29;94133;-93
2023/04/10 16:52:52;;;;;;;;;;;20.10;68.40;20.30;99762.00;;;;332402;29;92165;-93
2023/04/10 16:53:04;;;;;;;;;;;20.20;68.50;20.30;99769.00;;;;332712;29;96767;-91
2023/04/10 16:53:16;;;;;;;;;;;20.10;68.60;20.30;99759.00;;;;332561;29;92043;-94
2023/04/10 16:53:28;;;;;;;;;;;20.10;68.70;20.30;99765.00;;;;332635;29;95920;-92
2023/04/10 16:53:40;;;;;;;;;;;20.10;68.70;20.30;99762.00;;;;331272;29;92119;-92
2023/04/10 16:53:52;;;;;;;;;;;20.20;68.90;20.30;99760.00;;;;330252;29;95825;-93
2023/04/10 16:54:04;;;;;;;;;;;20.10;68.80;20.30;99770.00;;;;332383;29;92040;-92
2023/04/10 16:54:16;;;;;;;;;;;20.10;68.80;20.30;99769.00;;;;332625;29;94571;-92
2023/04/10 16:54:28;;;;;;;;;;;20.10;68.80;20.40;99757.00;;;;332648;29;91574;-92
2023/04/10 16:54:41;;;;;;;;;;;20.20;68.90;20.40;99762.00;;;;332792;29;95933;-93
2023/04/10 16:54:53;;;;;;;;;;;20.20;68.60;20.30;99766.00;;;;329808;29;92920;-93
2023/04/10 16:55:05;;;;;;;;;;;20.20;68.60;20.30;99765.00;;;;331474;29;95447;-93
2023/04/10 16:55:17;;;;;;;;;;;20.20;68.50;20.20;99767.00;;;;331362;29;91138;-92
2023/04/10 16:55:29;;;;;;;;;;;20.20;68.70;20.20;99761.00;;;;332588;29;94941;-93
2023/04/10 16:55:41;;;;;;;;;;;20.10;68.80;20.30;99759.00;;;;332387;29;92994;-91
2023/04/10 16:55:57;;;;;;;;;;;20.10;68.90;20.30;99764.00;;;;331448;29;95499;-92
2023/04/10 16:56:09;;;;;;;;;;;20.10;69.00;20.30;99758.00;;;;332669;29;91182;-91
2023/04/10 16:56:22;;;;;;;;;;;20.10;69.00;20.40;99759.00;;;;333075;29;95949;-90
2023/04/10 16:56:34;;;;;;;;;;;20.10;69.20;20.50;99758.00;;;;333876;29;91880;-90
2023/04/10 16:56:46;;;;;;;;;;;20.20;69.10;20.50;99759.00;;;;330421;29;94986;-87
2023/04/10 16:56:57;;;;;;;;;;;20.20;68.90;20.50;99762.00;;;;331613;29;93129;-92
2023/04/10 16:57:09;;;;;;;;;;;20.20;68.90;20.50;99760.00;;;;332641;29;97376;-92
2023/04/10 16:57:21;;;;;;;;;;;20.20;69.10;20.40;99753.00;;;;331250;29;92007;-91
2023/04/10 16:57:33;;;;;;;;;;;20.20;69.30;20.50;99755.00;;;;332722;29;96276;-91
2023/04/10 16:57:45;;;;;;;;;;;20.20;69.10;20.40;99750.00;;;;333823;29;91993;-91
2023/04/10 16:57:57;;;;;;;;;;;20.20;68.90;20.40;99753.00;;;;331222;29;95677;-92
2023/04/10 16:58:09;;;;;;;;;;;20.20;68.80;20.50;99745.00;;;;331092;29;92073;-91
2023/04/10 16:58:21;;;;;;;;;;;20.20;69.00;20.40;99757.00;;;;332618;29;96036;-92
2023/04/10 16:58:34;;;;;;;;;;;20.20;68.80;20.40;99756.00;;;;331907;29;91247;-91
2023/04/10 16:58:46;;;;;;;;;;;20.20;68.90;20.40;99753.00;;;;330339;29;94756;-91
2023/04/10 16:58:58;;;;;;;;;;;20.20;69.00;20.50;99748.00;;;;333778;29;92875;-91
2023/04/10 16:59:10;;;;;;;;;;;20.20;68.90;20.40;99753.00;;;;331583;29;95863;-92
2023/04/10 16:59:22;;;;;;;;;;;20.20;68.90;20.40;99739.00;;;;330174;29;92025;-91
2023/04/10 16:59:34;;;;;;;;;;;20.20;69.00;20.40;99747.00;;;;331505;29;95091;-92
2023/04/10 16:59:46;;;;;;;;;;;20.20;68.90;20.40;99745.00;;;;332427;29;92055;-91
2023/04/10 16:59:58;;;;;;;;;;;20.20;69.00;20.40;99737.00;;;;330109;29;95710;-91
2023/04/10 17:00:10;;;;;;;;;;;20.20;69.70;20.40;99749.00;;;;329811;29;92111;-92
2023/04/10 17:00:22;;;;;;;;;;;20.20;69.30;20.40;99752.00;;;;330325;29;94448;-91
2023/04/10 17:00:34;;;;;;;;;;;20.20;69.40;20.40;99746.00;;;;330133;29;91979;-93
2023/04/10 17:00:46;;;;;;;;;;;20.20;69.40;20.50;99738.00;;;;331594;29;95190;-92
2023/04/10 17:00:58;;;;;;;;;;;20.20;69.30;20.40;99744.00;;;;329932;29;92182;-92
2023/04/10 17:01:16;;;;;;;;;;;20.20;69.70;20.40;99754.00;;;;331265;29;95953;-92
2023/04/10 17:01:29;;;;;;;;;;;20.20;69.90;20.40;99750.00;;;;329921;29;92241;-91
2023/04/10 17:01:41;;;;;;;;;;;20.20;69.80;20.50;99745.00;;;;331601;29;95224;-91
2023/04/10 17:01:53;;;;;;;;;;;20.20;69.60;20.40;99746.00;;;;331359;29;92047;-91
2023/04/10 17:02:05;;;;;;;;;;;20.20;69.20;20.40;99744.00;;;;331597;29;94821;-90
2023/04/10 17:02:17;;;;;;;;;;;20.20;69.20;20.50;99745.00;;;;330088;29;92012;-91
2023/04/10 17:02:29;;;;;;;;;;;20.20;69.20;20.50;99746.00;;;;331478;29;94992;-90
2023/04/10 17:02:41;;;;;;;;;;;20.20;69.40;20.50;99741.00;;;;331266;29;91094;-89
2023/04/10 17:02:54;;;;;;;;;;;20.20;69.20;20.60;99752.00;;;;332982;29;94967;-89
2023/04/10 17:03:06;;;;;;;;;;;20.20;69.30;20.60;99745.00;;;;332181;29;93016;-89
2023/04/10 17:03:18;;;;;;;;;;;20.30;69.10;20.50;99738.00;;;;334067;29;97099;-89
2023/04/10 17:03:30;;;;;;;;;;;20.30;69.50;20.50;99735.00;;;;330968;29;92138;-88
2023/04/10 17:03:42;;;;;;;;;;;20.30;69.70;20.50;99733.00;;;;332942;29;92490;-88
2023/04/10 17:03:54;;;;;;;;;;;20.30;69.60;20.50;99747.00;;;;333797;29;91964;-88
2023/04/10 17:04:06;;;;;;;;;;;20.30;69.60;20.50;99738.00;;;;332685;29;95770;-88
2023/04/10 17:04:19;;;;;;;;;;;20.30;69.60;20.50;99739.00;;;;332379;29;92264;-88
2023/04/10 17:04:31;;;;;;;;;;;20.30;69.30;20.50;99735.00;;;;332851;29;93517;-88
2023/04/10 17:04:43;;;;;;;;;;;20.30;69.30;20.50;99730.00;;;;329920;29;92047;-90
2023/04/10 17:04:55;;;;;;;;;;;20.30;69.60;20.60;99739.00;;;;332705;29;95157;-89
2023/04/10 17:05:07;;;;;;;;;;;20.30;69.70;20.60;99744.00;;;;330862;29;93088;-90
2023/04/10 17:05:19;;;;;;;;;;;20.30;69.60;20.60;99738.00;;;;331379;29;96854;-89
2023/04/10 17:05:34;;;;;;;;;;;20.30;69.40;20.50;99741.00;;;;332415;29;92022;-90
2023/04/10 17:05:46;;;;;;;;;;;20.30;69.30;20.50;99742.00;;;;331523;29;95612;-89
2023/04/10 17:05:58;;;;;;;;;;;20.30;69.00;20.40;99741.00;;;;332698;29;91116;-90
2023/04/10 17:06:10;;;;;;;;;;;20.30;68.80;20.50;99734.00;;;;334319;29;95505;-88
2023/04/10 17:06:22;;;;;;;;;;;20.30;69.00;20.60;99734.00;;;;334354;29;91240;-91
2023/04/10 17:06:35;;;;;;;;;;;20.30;69.30;20.60;99741.00;;;;329234;29;95630;-90
2023/04/10 17:06:47;;;;;;;;;;;20.30;69.50;20.60;99737.00;;;;330282;29;92016;-87
2023/04/10 17:06:59;;;;;;;;;;;20.30;69.60;20.60;99739.00;;;;332566;29;95784;-87
2023/04/10 17:07:11;;;;;;;;;;;20.30;69.30;20.50;99737.00;;;;328722;29;92039;-87
2023/04/10 17:07:23;;;;;;;;;;;20.30;69.20;20.50;99731.00;;;;331244;29;96295;-87
2023/04/10 17:07:34;;;;;;;;;;;20.30;69.10;20.50;99740.00;;;;332226;29;92183;-86
2023/04/10 17:07:46;;;;;;;;;;;20.30;69.00;20.50;99732.00;;;;332733;29;94651;-86
2023/04/10 17:07:58;;;;;;;;;;;20.30;69.10;20.50;99735.00;;;;333761;29;91968;-87
2023/04/10 17:08:10;;;;;;;;;;;20.30;69.20;20.50;99744.00;;;;332065;29;95833;-91
2023/04/10 17:08:22;;;;;;;;;;;20.30;69.10;20.50;99742.00;;;;332038;29;91248;-91
2023/04/10 17:08:34;;;;;;;;;;;20.30;69.20;20.50;99736.00;;;;334664;29;95851;-89
2023/04/10 17:08:46;;;;;;;;;;;20.30;69.30;20.40;99745.00;;;;331975;29;91929;-90
2023/04/10 17:08:58;;;;;;;;;;;20.30;69.30;20.50;99744.00;;;;332768;29;96143;-91
2023/04/10 17:09:10;;;;;;;;;;;20.30;69.30;20.40;99738.00;;;;333149;29;92102;-89
2023/04/10 17:09:22;;;;;;;;;;;20.30;69.30;20.40;99740.00;;;;332543;29;96920;-90
2023/04/10 17:09:34;;;;;;;;;;;20.30;69.10;20.40;99743.00;;;;333746;29;91198;-91
2023/04/10 17:09:46;;;;;;;;;;;20.30;69.10;20.50;99740.00;;;;331457;29;94546;-91
2023/04/10 17:09:58;;;;;;;;;;;20.30;69.00;20.50;99745.00;;;;333736;29;91208;-92
2023/04/10 17:10:10;;;;;;;;;;;20.30;69.00;20.40;99745.00;;;;334030;29;94727;-92
2023/04/10 17:10:22;;;;;;;;;;;20.30;69.20;20.40;99739.00;;;;331216;29;91226;-91
2023/04/10 17:10:34;;;;;;;;;;;20.30;69.20;20.50;99743.00;;;;334218;29;94688;-91
2023/04/10 17:10:46;;;;;;;;;;;20.30;69.20;20.50;99743.00;;;;332788;29;91170;-92
2023/04/10 17:10:58;;;;;;;;;;;20.30;69.20;20.50;99743.00;;;;333890;29;93805;-93
2023/04/10 17:11:13;;;;;;;;;;;20.30;69.30;20.50;99744.00;;;;332524;29;92112;-91
2023/04/10 17:11:24;;;;;;;;;;;20.30;69.30;20.40;99739.00;;;;332639;29;96082;-92
2023/04/10 17:11:36;;;;;;;;;;;20.30;69.40;20.50;99746.00;;;;332393;29;91144;-92
2023/04/10 17:11:48;;;;;;;;;;;20.30;69.50;20.60;99746.00;;;;332839;29;95231;-92
2023/04/10 17:12:00;;;;;;;;;;;20.30;69.50;20.50;99740.00;;;;333916;29;91121;-92
2023/04/10 17:12:12;;;;;;;;;;;20.30;69.10;20.40;99738.00;;;;335041;29;94997;-92
2023/04/10 17:12:24;;;;;;;;;;;20.30;69.20;20.50;99736.00;;;;332664;29;91055;-93
2023/04/10 17:12:37;;;;;;;;;;;20.30;69.30;20.40;99733.00;;;;334011;29;95097;-93
2023/04/10 17:12:49;;;;;;;;;;;20.30;69.50;20.50;99742.00;;;;332499;29;91196;-93
2023/04/10 17:13:01;;;;;;;;;;;20.30;69.70;20.50;99741.00;;;;332747;29;95203;-93
2023/04/10 17:13:13;;;;;;;;;;;20.30;69.70;20.40;99747.00;;;;332237;29;92204;-93
2023/04/10 17:13:25;;;;;;;;;;;20.30;69.10;20.30;99740.00;;;;332779;29;95847;-92
2023/04/10 17:13:38;;;;;;;;;;;20.30;68.80;20.40;99744.00;;;;333801;29;91134;-92
2023/04/10 17:13:50;;;;;;;;;;;20.30;69.10;20.50;99746.00;;;;334018;29;96540;-92
2023/04/10 17:14:02;;;;;;;;;;;20.30;69.30;20.50;99733.00;;;;333622;29;91132;-92
2023/04/10 17:14:14;;;;;;;;;;;20.30;69.40;20.60;99738.00;;;;331122;29;94765;-93
2023/04/10 17:14:27;;;;;;;;;;;20.30;69.50;20.60;99734.00;;;;330966;29;91320;-92
2023/04/10 17:14:39;;;;;;;;;;;20.30;69.30;20.60;99740.00;;;;333761;29;94642;-94
2023/04/10 17:14:51;;;;;;;;;;;20.30;69.40;20.60;99734.00;;;;333458;29;91987;-93
2023/04/10 17:15:03;;;;;;;;;;;20.30;69.60;20.50;99738.00;;;;333549;29;95155;-93
2023/04/10 17:15:15;;;;;;;;;;;20.30;69.40;20.60;99733.00;;;;332148;29;92304;-92
2023/04/10 17:15:26;;;;;;;;;;;20.40;69.50;20.70;99736.00;;;;332619;29;95982;-92
2023/04/10 17:15:38;;;;;;;;;;;20.30;69.70;20.60;99741.00;;;;333582;29;91163;-90
2023/04/10 17:15:50;;;;;;;;;;;20.30;70.10;20.70;99731.00;;;;333761;29;94648;-91
2023/04/10 17:16:03;;;;;;;;;;;20.30;70.20;20.60;99734.00;;;;333539;29;91218;-91
2023/04/10 17:16:15;;;;;;;;;;;20.40;70.70;20.50;99737.00;;;;333472;29;94637;-91
2023/04/10 17:16:27;;;;;;;;;;;20.30;69.60;20.50;99738.00;;;;333234;29;91090;-89
2023/04/10 17:16:39;;;;;;;;;;;20.30;69.60;20.50;99730.00;;;;332574;29;96434;-92
2023/04/10 17:16:51;;;;;;;;;;;20.30;69.50;20.50;99737.00;;;;334013;29;91314;-93
2023/04/10 17:17:03;;;;;;;;;;;20.30;69.60;20.50;99734.00;;;;333971;29;94593;-92
2023/04/10 17:17:15;;;;;;;;;;;20.30;69.50;20.50;99730.00;;;;332515;29;92114;-92
2023/04/10 17:17:27;;;;;;;;;;;20.30;69.60;20.50;99726.00;;;;331349;29;96187;-89
2023/04/10 17:17:39;;;;;;;;;;;20.30;69.60;20.50;99727.00;;;;333363;29;91868;-90
2023/04/10 17:17:52;;;;;;;;;;;20.30;69.60;20.50;99735.00;;;;333336;29;96401;-89
2023/04/10 17:18:04;;;;;;;;;;;20.30;69.60;20.50;99728.00;;;;333072;29;91273;-90
2023/04/10 17:18:18;;;;;;;;;;;20.30;69.60;20.40;99727.00;;;;330812;29;94559;-90
2023/04/10 17:18:31;;;;;;;;;;;20.30;69.60;20.50;99733.00;;;;333055;29;91224;-90
2023/04/10 17:18:43;;;;;;;;;;;20.30;69.60;20.40;99727.00;;;;332746;29;94718;-93
2023/04/10 17:18:54;;;;;;;;;;;20.30;69.50;20.30;99725.00;;;;332126;29;91425;-92
2023/04/10 17:19:07;;;;;;;;;;;20.30;69.60;20.10;99728.00;;;;334206;29;96157;-93
2023/04/10 17:19:19;;;;;;;;;;;20.30;70.60;20.00;99727.00;;;;331228;29;92046;-92
2023/04/10 17:19:31;;;;;;;;;;;20.30;70.20;20.00;99729.00;;;;332612;29;96844;-92
2023/04/10 17:19:43;;;;;;;;;;;20.30;70.00;20.00;99729.00;;;;333504;29;92002;-91
2023/04/10 17:19:55;;;;;;;;;;;20.20;69.60;20.20;99726.00;;;;332580;29;96154;-91
2023/04/10 17:20:08;;;;;;;;;;;20.20;69.60;20.30;99728.00;;;;333533;29;91922;-92
2023/04/10 17:20:20;;;;;;;;;;;20.20;69.80;20.20;99731.00;;;;335211;29;91852;-91
2023/04/10 17:20:35;;;;;;;;;;;20.20;70.10;20.10;99735.00;;;;333612;29;91262;-91
2023/04/10 17:20:47;;;;;;;;;;;20.20;69.90;20.00;99729.00;;;;334990;29;94694;-91
2023/04/10 17:20:59;;;;;;;;;;;20.20;70.30;20.00;99726.00;;;;334737;29;91274;-91
2023/04/10 17:21:12;;;;;;;;;;;20.10;70.00;20.20;99717.00;;;;335056;29;94878;-92
2023/04/10 17:21:26;;;;;;;;;;;20.10;70.00;20.20;99720.00;;;;333281;29;92075;-91
2023/04/10 17:21:37;;;;;;;;;;;20.10;69.80;20.20;99718.00;;;;331090;29;95687;-90
2023/04/10 17:21:51;;;;;;;;;;;20.10;70.00;20.20;99724.00;;;;333058;29;91361;-90
2023/04/10 17:22:02;;;;;;;;;;;20.10;69.90;20.20;99713.00;;;;333108;29;94652;-88
2023/04/10 17:22:15;;;;;;;;;;;20.10;69.80;20.20;99714.00;;;;333731;29;92129;-90
2023/04/10 17:22:27;;;;;;;;;;;20.10;69.90;20.20;99720.00;;;;332294;29;94113;-91
2023/04/10 17:22:39;;;;;;;;;;;20.10;69.80;20.20;99715.00;;;;331920;29;91161;-91
2023/04/10 17:22:51;;;;;;;;;;;20.10;69.40;20.20;99710.00;;;;333728;29;94814;-91
2023/04/10 17:23:05;;;;;;;;;;;20.10;69.40;20.30;99714.00;;;;330709;29;91254;-91
2023/04/10 17:23:17;;;;;;;;;;;20.10;69.60;20.20;99708.00;;;;333501;29;94597;-91
2023/04/10 17:23:29;;;;;;;;;;;20.10;69.70;20.20;99714.00;;;;331614;29;92987;-90
2023/04/10 17:23:41;;;;;;;;;;;20.10;70.10;20.10;99708.00;;;;332813;29;95484;-93
2023/04/10 17:23:53;;;;;;;;;;;20.10;70.10;20.30;99715.00;;;;334477;29;91183;-90
2023/04/10 17:24:05;;;;;;;;;;;20.10;70.00;20.40;99720.00;;;;332720;29;95003;-92
2023/04/10 17:24:17;;;;;;;;;;;20.10;69.80;20.20;99706.00;;;;332016;29;91807;-91
2023/04/10 17:24:30;;;;;;;;;;;20.10;69.70;20.20;99700.00;;;;331865;29;95989;-90
2023/04/10 17:24:42;;;;;;;;;;;20.10;69.70;20.10;99709.00;;;;332066;29;91900;-91
2023/04/10 17:24:54;;;;;;;;;;;20.10;70.40;20.20;99701.00;;;;332048;29;95990;-91
2023/04/10 17:25:07;;;;;;;;;;;20.10;70.50;20.10;99705.00;;;;332039;29;91456;-90
2023/04/10 17:25:19;;;;;;;;;;;20.10;70.40;20.10;99711.00;;;;333369;29;94589;-91
2023/04/10 17:25:31;;;;;;;;;;;20.10;70.30;20.10;99703.00;;;;334636;29;92158;-90
2023/04/10 17:25:43;;;;;;;;;;;20.00;69.90;20.20;99705.00;;;;334602;29;96544;-90
2023/04/10 17:25:55;;;;;;;;;;;20.00;69.90;20.10;99705.00;;;;334585;29;91238;-90
2023/04/10 17:26:11;;;;;;;;;;;20.00;70.20;20.10;99705.00;;;;330875;29;95027;-91
2023/04/10 17:26:23;;;;;;;;;;;20.00;69.90;20.10;99701.00;;;;333251;29;92054;-92
2023/04/10 17:26:35;;;;;;;;;;;20.00;70.00;20.10;99708.00;;;;333537;29;94946;-91
2023/04/10 17:26:48;;;;;;;;;;;20.00;70.20;20.00;99698.00;;;;333324;29;91213;-92
2023/04/10 17:27:00;;;;;;;;;;;20.00;70.30;19.90;99690.00;;;;336118;29;95954;-91
2023/04/10 17:27:12;;;;;;;;;;;20.00;70.80;20.00;99688.00;;;;331985;29;91945;-91
2023/04/10 17:27:24;;;;;;;;;;;20.00;70.60;20.10;99697.00;;;;332778;29;94967;-91
2023/04/10 17:27:36;;;;;;;;;;;19.90;70.30;20.20;99705.00;;;;330069;29;92825;-91
2023/04/10 17:27:51;;;;;;;;;;;20.00;70.20;20.20;99703.00;;;;332291;29;97090;-89
2023/04/10 17:28:03;;;;;;;;;;;20.00;70.10;20.30;99694.00;;;;332078;29;92010;-91
2023/04/10 17:28:15;;;;;;;;;;;20.00;70.20;20.30;99698.00;;;;333561;29;94859;-90
2023/04/10 17:28:26;;;;;;;;;;;20.00;70.50;20.30;99692.00;;;;334567;29;92060;-90
2023/04/10 17:28:38;;;;;;;;;;;20.00;70.50;20.10;99691.00;;;;334752;29;94841;-90
2023/04/10 17:28:50;;;;;;;;;;;20.00;70.50;20.10;99685.00;;;;333082;29;91183;-90
2023/04/10 17:29:03;;;;;;;;;;;20.00;70.60;20.20;99696.00;;;;332391;29;94838;-91
2023/04/10 17:29:15;;;;;;;;;;;20.00;70.60;20.30;99691.00;;;;330830;29;91924;-91
2023/04/10 17:29:26;;;;;;;;;;;20.00;70.50;20.30;99695.00;;;;331989;29;94724;-91
2023/04/10 17:29:38;;;;;;;;;;;20.00;70.20;20.30;99703.00;;;;333016;29;93029;-91
2023/04/10 17:29:50;;;;;;;;;;;20.00;70.20;20.20;99693.00;;;;330869;29;95750;-91
2023/04/10 17:30:02;;;;;;;;;;;20.00;70.50;20.20;99692.00;;;;332170;29;91100;-91
2023/04/10 17:30:14;;;;;;;;;;;20.00;70.50;20.20;99688.00;;;;334598;29;93185;-92
2023/04/10 17:30:26;;;;;;;;;;;20.00;70.50;20.20;99686.00;;;;332140;29;91978;-87
2023/04/10 17:30:38;;;;;;;;;;;20.00;70.40;20.20;99687.00;;;;331364;29;96457;-88
2023/04/10 17:30:50;;;;;;;;;;;20.00;70.60;20.20;99691.00;;;;332399;29;91168;-88
2023/04/10 17:31:02;;;;;;;;;;;20.00;70.60;20.10;99693.00;;;;331262;29;95912;-92
2023/04/10 17:31:14;;;;;;;;;;;20.00;70.80;20.20;99695.00;;;;331157;29;91892;-91
2023/04/10 17:31:27;;;;;;;;;;;20.00;71.00;20.00;99692.00;;;;331471;29;94699;-91
2023/04/10 17:31:39;;;;;;;;;;;20.00;71.00;20.10;99691.00;;;;333516;29;92798;-91
2023/04/10 17:31:51;;;;;;;;;;;20.00;70.90;20.10;99686.00;;;;331430;29;95669;-91
2023/04/10 17:32:02;;;;;;;;;;;20.00;71.00;20.00;99693.00;;;;333613;29;92147;-91
2023/04/10 17:32:14;;;;;;;;;;;20.00;71.00;20.00;99692.00;;;;329964;29;95064;-91
2023/04/10 17:32:26;;;;;;;;;;;20.00;71.40;20.00;99691.00;;;;328579;29;92125;-91
2023/04/10 17:32:40;;;;;;;;;;;20.00;71.40;20.10;99693.00;;;;332571;29;93634;-91
2023/04/10 17:32:52;;;;;;;;;;;20.00;71.30;20.10;99687.00;;;;331050;29;91881;-92
2023/04/10 17:33:04;;;;;;;;;;;20.00;71.20;20.10;99696.00;;;;333991;29;95358;-91
2023/04/10 17:33:17;;;;;;;;;;;20.00;71.10;20.00;99694.00;;;;335080;29;92052;-92
2023/04/10 17:33:29;;;;;;;;;;;20.00;71.10;20.00;99694.00;;;;331343;29;94666;-93
2023/04/10 17:33:41;;;;;;;;;;;20.00;71.30;19.90;99693.00;;;;332225;29;92215;-92
2023/04/10 17:33:53;;;;;;;;;;;19.90;71.70;19.80;99703.00;;;;332833;29;95583;-93
2023/04/10 17:34:05;;;;;;;;;;;19.90;71.60;19.90;99698.00;;;;330033;29;92152;-92
2023/04/10 17:34:16;;;;;;;;;;;19.90;71.70;19.80;99696.00;;;;332473;29;95122;-92